CheckWX is a tool to help pilots better visualize weather data.  It is not intended as a substitute for an official pre-flight weather briefing.

23:12:16 UTC

KLWM METAR
Lawrence Municipal Airport
Lawrence, Massachusetts, USA
Current

18 mins ago

KLWM 192254Z 30005KT 10SM CLR 04/M13 A3036 RMK AO2 SLP283 T00391133
Observed
Mar-19 @ 22:54 UTC
Wind
  • 300° at 5 KTS
Visibility
10 SM
Flight Rules
VFR
Cloud Levels
  • Clear skies
Temperature
C / 39°F
Dewpoint
-13°C / 9°F
Humidity
28%
Altimeter
30.36" Hg
Pressure
1028.3 hPa
Previous

1 hour ago

KLWM 192154Z 30009KT 10SM CLR 05/M12 A3034 RMK AO2 SLP275 T00501122
Observed
Mar-19 @ 21:54 UTC
Wind
  • 300° at 9 KTS
Visibility
10 SM
Flight Rules
VFR
Cloud Levels
  • Clear skies
Temperature
C / 41°F
Dewpoint
-12°C / 10°F
Humidity
28%
Altimeter
30.34" Hg
Pressure
1027.5 hPa
Previous

2 hours ago

KLWM 192054Z 30007G18KT 10SM BKN075 06/M12 A3033 RMK AO2 RAB21E32 SLP272 P0000 60000 T00561117 56008
Observed
Mar-19 @ 20:54 UTC
Wind
  • 300° at 7 KTS
  • Gusting to 18 KTS
Visibility
10 SM
Flight Rules
VFR
Cloud Levels
  • Broken at 7,500' AGL
Temperature
C / 43°F
Dewpoint
-12°C / 10°F
Humidity
26%
Altimeter
30.33" Hg
Pressure
1027.2 hPa
Current Rain
0.01"